sensor_id;sensor_type;location;lat;lon;timestamp;pressure;altitude;pressure_sealevel;temperature;humidity
54038;BME280;39954;48.844;9.726;2022-09-17T00:31:22;95708.72;;;7.49;100.00
54038;BME280;39954;48.844;9.726;2022-09-17T00:32:27;95709.72;;;7.46;100.00
54038;BME280;39954;48.844;9.726;2022-09-17T00:33:30;95704.59;;;7.45;100.00
54038;BME280;39954;48.844;9.726;2022-09-17T00:34:34;95715.38;;;7.37;100.00
54038;BME280;39954;48.844;9.726;2022-09-17T00:35:39;95706.47;;;7.43;100.00
54038;BME280;39954;48.844;9.726;2022-09-17T00:36:41;95707.03;;;7.48;100.00
54038;BME280;39954;48.844;9.726;2022-09-17T00:37:46;95704.44;;;7.48;100.00
54038;BME280;39954;48.844;9.726;2022-09-17T00:38:49;95701.03;;;7.47;100.00
54038;BME280;39954;48.844;9.726;2022-09-17T00:39:54;95703.31;;;7.36;100.00
54038;BME280;39954;48.844;9.726;2022-09-17T00:40:56;95702.66;;;7.32;100.00
54038;BME280;39954;48.844;9.726;2022-09-17T00:42:01;95705.25;;;7.32;100.00
54038;BME280;39954;48.844;9.726;2022-09-17T00:43:09;95710.72;;;7.26;100.00
54038;BME280;39954;48.844;9.726;2022-09-17T00:44:41;95698.09;;;7.20;100.00
54038;BME280;39954;48.844;9.726;2022-09-17T00:45:47;95704.16;;;7.19;100.00
54038;BME280;39954;48.844;9.726;2022-09-17T00:46:56;95687.84;;;7.18;100.00
54038;BME280;39954;48.844;9.726;2022-09-17T00:48:01;95695.69;;;7.17;100.00
54038;BME280;39954;48.844;9.726;2022-09-17T00:49:11;95689.81;;;7.13;100.00
54038;BME280;39954;48.844;9.726;2022-09-17T00:50:18;95691.72;;;7.10;100.00
54038;BME280;39954;48.844;9.726;2022-09-17T00:51:29;95694.44;;;7.07;100.00
54038;BME280;39954;48.844;9.726;2022-09-17T00:52:37;95686.03;;;7.03;100.00
54038;BME280;39954;48.844;9.726;2022-09-17T00:53:43;95690.31;;;7.03;100.00
54038;BME280;39954;48.844;9.726;2022-09-17T00:54:51;95686.03;;;7.03;100.00
54038;BME280;39954;48.844;9.726;2022-09-17T00:56:01;95687.75;;;7.03;100.00
54038;BME280;39954;48.844;9.726;2022-09-17T00:57:04;95690.47;;;7.00;100.00
54038;BME280;39954;48.844;9.726;2022-09-17T00:58:11;95680.28;;;6.97;100.00
54038;BME280;39954;48.844;9.726;2022-09-17T00:59:16;95677.88;;;6.93;100.00
54038;BME280;39954;48.844;9.726;2022-09-17T01:00:20;95686.22;;;6.99;100.00
54038;BME280;39954;48.844;9.726;2022-09-17T01:01:25;95687.28;;;6.94;100.00
54038;BME280;39954;48.844;9.726;2022-09-17T01:02:30;95689.03;;;6.94;100.00
54038;BME280;39954;48.844;9.726;2022-09-17T01:03:37;95688.19;;;6.93;100.00
54038;BME280;39954;48.844;9.726;2022-09-17T01:04:39;95698.84;;;6.87;100.00
54038;BME280;39954;48.844;9.726;2022-09-17T01:05:48;95689.53;;;6.83;100.00
54038;BME280;39954;48.844;9.726;2022-09-17T01:06:56;95687.13;;;6.80;100.00
54038;BME280;39954;48.844;9.726;2022-09-17T01:08:09;95690.78;;;6.76;100.00
54038;BME280;39954;48.844;9.726;2022-09-17T01:09:23;95691.75;;;6.73;100.00
54038;BME280;39954;48.844;9.726;2022-09-17T01:10:38;95688.50;;;6.70;100.00
54038;BME280;39954;48.844;9.726;2022-09-17T01:11:54;95688.50;;;6.70;100.00
54038;BME280;39954;48.844;9.726;2022-09-17T01:13:08;95683.47;;;6.67;100.00
54038;BME280;39954;48.844;9.726;2022-09-17T01:14:26;95676.75;;;6.63;100.00
54038;BME280;39954;48.844;9.726;2022-09-17T01:15:42;95685.44;;;6.62;100.00
54038;BME280;39954;48.844;9.726;2022-09-17T01:16:54;95686.56;;;6.56;100.00
54038;BME280;39954;48.844;9.726;2022-09-17T01:18:20;95689.13;;;6.56;100.00
54038;BME280;39954;48.844;9.726;2022-09-17T01:19:47;95678.03;;;6.54;100.00
54038;BME280;39954;48.844;9.726;2022-09-17T01:22:50;95686.00;;;6.49;100.00
54038;BME280;39954;48.844;9.726;2022-09-17T01:25:50;95693.00;;;6.47;100.00
54038;BME280;39954;48.844;9.726;2022-09-17T01:27:35;95693.00;;;6.47;100.00
54038;BME280;39954;48.844;9.726;2022-09-17T01:28:52;95686.28;;;6.43;100.00
54038;BME280;39954;48.844;9.726;2022-09-17T01:30:16;95687.13;;;6.44;100.00
54038;BME280;39954;48.844;9.726;2022-09-17T01:31:31;95694.31;;;6.37;100.00
54038;BME280;39954;48.844;9.726;2022-09-17T01:32:41;95703.03;;;6.35;100.00
54038;BME280;39954;48.844;9.726;2022-09-17T01:33:52;95705.72;;;6.33;100.00
54038;BME280;39954;48.844;9.726;2022-09-17T01:35:08;95702.06;;;6.37;100.00
54038;BME280;39954;48.844;9.726;2022-09-17T01:36:32;95711.63;;;6.35;100.00
54038;BME280;39954;48.844;9.726;2022-09-17T01:37:48;95713.31;;;6.36;100.00
54038;BME280;39954;48.844;9.726;2022-09-17T01:39:02;95715.88;;;6.36;100.00
54038;BME280;39954;48.844;9.726;2022-09-17T01:40:16;95716.53;;;6.41;100.00
54038;BME280;39954;48.844;9.726;2022-09-17T01:41:30;95722.41;;;6.43;100.00
54038;BME280;39954;48.844;9.726;2022-09-17T01:42:47;95713.66;;;6.47;100.00
54038;BME280;39954;48.844;9.726;2022-09-17T01:43:55;95711.81;;;6.49;100.00
54038;BME280;39954;48.844;9.726;2022-09-17T01:45:04;95716.00;;;6.52;100.00
54038;BME280;39954;48.844;9.726;2022-09-17T01:46:14;95708.09;;;6.55;100.00
54038;BME280;39954;48.844;9.726;2022-09-17T01:47:27;95705.59;;;6.54;100.00
54038;BME280;39954;48.844;9.726;2022-09-17T01:48:33;95718.38;;;6.57;100.00
54038;BME280;39954;48.844;9.726;2022-09-17T01:49:39;95714.13;;;6.56;100.00
54038;BME280;39954;48.844;9.726;2022-09-17T01:50:44;95710.47;;;6.60;100.00
54038;BME280;39954;48.844;9.726;2022-09-17T01:51:52;95711.41;;;6.59;100.00
54038;BME280;39954;48.844;9.726;2022-09-17T01:52:56;95715.78;;;6.57;100.00
54038;BME280;39954;48.844;9.726;2022-09-17T01:54:04;95710.09;;;6.50;100.00
54038;BME280;39954;48.844;9.726;2022-09-17T01:55:10;95717.75;;;6.52;100.00
54038;BME280;39954;48.844;9.726;2022-09-17T01:56:18;95711.91;;;6.48;100.00
54038;BME280;39954;48.844;9.726;2022-09-17T01:57:28;95711.69;;;6.53;100.00
54038;BME280;39954;48.844;9.726;2022-09-17T01:58:39;95712.72;;;6.48;100.00
54038;BME280;39954;48.844;9.726;2022-09-17T01:59:47;95724.84;;;6.46;100.00
54038;BME280;39954;48.844;9.726;2022-09-17T02:00:57;95722.06;;;6.51;100.00
54038;BME280;39954;48.844;9.726;2022-09-17T02:02:06;95725.50;;;6.52;100.00
54038;BME280;39954;48.844;9.726;2022-09-17T02:03:20;95724.44;;;6.56;100.00
54038;BME280;39954;48.844;9.726;2022-09-17T02:04:27;95723.53;;;6.57;100.00
54038;BME280;39954;48.844;9.726;2022-09-17T02:05:38;95716.41;;;6.62;100.00
54038;BME280;39954;48.844;9.726;2022-09-17T02:06:45;95712.63;;;6.69;100.00
54038;BME280;39954;48.844;9.726;2022-09-17T02:07:54;95723.56;;;6.74;100.00
54038;BME280;39954;48.844;9.726;2022-09-17T02:09:01;95714.69;;;6.80;100.00
54038;BME280;39954;48.844;9.726;2022-09-17T02:10:10;95718.97;;;6.81;100.00
54038;BME280;39954;48.844;9.726;2022-09-17T02:11:13;95714.78;;;6.78;100.00
54038;BME280;39954;48.844;9.726;2022-09-17T02:12:22;95712.94;;;6.80;100.00
54038;BME280;39954;48.844;9.726;2022-09-17T02:13:29;95718.66;;;6.87;100.00
54038;BME280;39954;48.844;9.726;2022-09-17T02:14:39;95717.84;;;6.86;100.00
54038;BME280;39954;48.844;9.726;2022-09-17T02:15:48;95715.25;;;6.86;100.00
54038;BME280;39954;48.844;9.726;2022-09-17T02:16:59;95716.09;;;6.87;100.00
54038;BME280;39954;48.844;9.726;2022-09-17T02:18:06;95716.44;;;6.79;100.00
54038;BME280;39954;48.844;9.726;2022-09-17T02:19:20;95715.69;;;6.77;100.00
54038;BME280;39954;48.844;9.726;2022-09-17T02:20:29;95719.94;;;6.78;100.00
54038;BME280;39954;48.844;9.726;2022-09-17T02:21:41;95716.38;;;6.81;100.00
54038;BME280;39954;48.844;9.726;2022-09-17T02:22:48;95709.38;;;6.83;100.00
54038;BME280;39954;48.844;9.726;2022-09-17T02:23:59;95711.81;;;6.86;100.00
54038;BME280;39954;48.844;9.726;2022-09-17T02:25:09;95711.44;;;6.93;100.00
54038;BME280;39954;48.844;9.726;2022-09-17T02:26:19;95704.63;;;6.92;100.00
54038;BME280;39954;48.844;9.726;2022-09-17T02:27:26;95712.28;;;6.94;100.00
54038;BME280;39954;48.844;9.726;2022-09-17T02:28:37;95707.94;;;6.94;100.00
54038;BME280;39954;48.844;9.726;2022-09-17T02:29:43;95711.53;;;6.92;100.00
54038;BME280;39954;48.844;9.726;2022-09-17T02:30:48;95716.91;;;6.87;100.00
54038;BME280;39954;48.844;9.726;2022-09-17T02:31:51;95713.25;;;6.91;100.00
54038;BME280;39954;48.844;9.726;2022-09-17T02:32:56;95711.59;;;6.90;100.00
54038;BME280;39954;48.844;9.726;2022-09-17T02:34:00;95714.13;;;6.92;100.00
54038;BME280;39954;48.844;9.726;2022-09-17T02:35:11;95713.06;;;6.96;100.00
54038;BME280;39954;48.844;9.726;2022-09-17T02:36:14;95717.28;;;6.97;100.00
54038;BME280;39954;48.844;9.726;2022-09-17T02:37:20;95715.56;;;6.98;100.00
54038;BME280;39954;48.844;9.726;2022-09-17T02:38:24;95714.81;;;6.95;100.00
54038;BME280;39954;48.844;9.726;2022-09-17T02:39:29;95719.53;;;7.05;100.00
54038;BME280;39954;48.844;9.726;2022-09-17T02:40:34;95718.00;;;7.01;100.00
54038;BME280;39954;48.844;9.726;2022-09-17T02:41:48;95710.72;;;7.09;100.00
54038;BME280;39954;48.844;9.726;2022-09-17T02:43:03;95709.19;;;7.05;100.00
54038;BME280;39954;48.844;9.726;2022-09-17T02:44:19;95710.72;;;7.09;100.00
54038;BME280;39954;48.844;9.726;2022-09-17T02:45:33;95716.03;;;7.06;100.00
54038;BME280;39954;48.844;9.726;2022-09-17T02:46:56;95715.59;;;7.15;100.00
54038;BME280;39954;48.844;9.726;2022-09-17T02:48:17;95706.22;;;7.12;100.00
54038;BME280;39954;48.844;9.726;2022-09-17T02:49:37;95716.03;;;7.06;100.00
54038;BME280;39954;48.844;9.726;2022-09-17T02:51:07;95710.88;;;7.06;100.00
54038;BME280;39954;48.844;9.726;2022-09-17T02:52:22;95711.69;;;7.06;100.00
54038;BME280;39954;48.844;9.726;2022-09-17T02:53:34;95706.53;;;7.06;100.00
54038;BME280;39954;48.844;9.726;2022-09-17T02:54:47;95713.22;;;7.10;100.00
54038;BME280;39954;48.844;9.726;2022-09-17T02:56:01;95715.19;;;7.05;100.00
54038;BME280;39954;48.844;9.726;2022-09-17T02:57:14;95707.59;;;7.02;100.00
54038;BME280;39954;48.844;9.726;2022-09-17T02:58:24;95710.56;;;7.12;100.00
54038;BME280;39954;48.844;9.726;2022-09-17T02:59:31;95708.41;;;7.03;100.00
54038;BME280;39954;48.844;9.726;2022-09-17T03:00:38;95709.13;;;7.06;100.00
54038;BME280;39954;48.844;9.726;2022-09-17T03:01:43;95705.72;;;7.06;100.00
54038;BME280;39954;48.844;9.726;2022-09-17T03:02:54;95697.72;;;7.10;100.00
54038;BME280;39954;48.844;9.726;2022-09-17T03:03:59;95700.53;;;7.06;100.00
54038;BME280;39954;48.844;9.726;2022-09-17T03:05:06;95695.91;;;7.12;100.00
54038;BME280;39954;48.844;9.726;2022-09-17T03:06:12;95705.16;;;7.16;100.00
54038;BME280;39954;48.844;9.726;2022-09-17T03:07:18;95704.16;;;7.19;100.00
54038;BME280;39954;48.844;9.726;2022-09-17T03:08:27;95692.53;;;7.10;100.00
54038;BME280;39954;48.844;9.726;2022-09-17T03:09:32;95708.03;;;7.10;100.00
54038;BME280;39954;48.844;9.726;2022-09-17T03:10:34;95699.53;;;7.08;100.00
54038;BME280;39954;48.844;9.726;2022-09-17T03:11:40;95697.19;;;7.04;100.00
54038;BME280;39954;48.844;9.726;2022-09-17T03:12:43;95700.44;;;7.07;100.00
54038;BME280;39954;48.844;9.726;2022-09-17T03:13:47;95698.00;;;7.04;100.00
54038;BME280;39954;48.844;9.726;2022-09-17T03:14:50;95699.97;;;6.99;100.00
54038;BME280;39954;48.844;9.726;2022-09-17T03:15:54;95700.75;;;7.01;100.00
54038;BME280;39954;48.844;9.726;2022-09-17T03:16:56;95703.41;;;7.00;100.00
54038;BME280;39954;48.844;9.726;2022-09-17T03:18:01;95705.81;;;7.03;100.00
54038;BME280;39954;48.844;9.726;2022-09-17T03:19:03;95701.44;;;7.05;100.00
54038;BME280;39954;48.844;9.726;2022-09-17T03:20:09;95699.16;;;6.99;100.00
54038;BME280;39954;48.844;9.726;2022-09-17T03:21:13;95694.75;;;7.01;100.00
54038;BME280;39954;48.844;9.726;2022-09-17T03:22:18;95704.84;;;7.05;100.00
54038;BME280;39954;48.844;9.726;2022-09-17T03:23:20;95706.75;;;7.02;100.00
54038;BME280;39954;48.844;9.726;2022-09-17T03:24:25;95702.78;;;6.94;100.00
54038;BME280;39954;48.844;9.726;2022-09-17T03:25:27;95700.97;;;6.97;100.00
54038;BME280;39954;48.844;9.726;2022-09-17T03:26:32;95700.06;;;6.98;100.00
54038;BME280;39954;48.844;9.726;2022-09-17T03:27:34;95705.97;;;7.00;100.00
54038;BME280;39954;48.844;9.726;2022-09-17T03:28:39;95705.25;;;6.98;100.00
54038;BME280;39954;48.844;9.726;2022-09-17T03:29:41;95704.00;;;7.05;100.00
54038;BME280;39954;48.844;9.726;2022-09-17T03:30:46;95705.00;;;7.02;100.00
54038;BME280;39954;48.844;9.726;2022-09-17T03:31:48;95698.69;;;7.08;100.00
54038;BME280;39954;48.844;9.726;2022-09-17T03:32:53;95702.19;;;7.07;100.00
54038;BME280;39954;48.844;9.726;2022-09-17T03:33:55;95697.19;;;7.04;100.00
54038;BME280;39954;48.844;9.726;2022-09-17T03:35:00;95698.06;;;7.03;100.00
54038;BME280;39954;48.844;9.726;2022-09-17T03:36:02;95699.69;;;7.05;100.00
54038;BME280;39954;48.844;9.726;2022-09-17T03:37:09;95704.00;;;7.05;100.00
54038;BME280;39954;48.844;9.726;2022-09-17T03:38:14;95697.41;;;6.99;100.00
54038;BME280;39954;48.844;9.726;2022-09-17T03:39:17;95700.91;;;6.98;100.00
54038;BME280;39954;48.844;9.726;2022-09-17T03:40:21;95717.19;;;7.00;100.00
54038;BME280;39954;48.844;9.726;2022-09-17T03:41:24;95700.53;;;7.06;100.00
54038;BME280;39954;48.844;9.726;2022-09-17T03:42:29;95706.69;;;7.03;100.00
54038;BME280;39954;48.844;9.726;2022-09-17T03:43:31;95702.19;;;7.07;100.00
54038;BME280;39954;48.844;9.726;2022-09-17T03:44:36;95701.59;;;7.02;100.00
54038;BME280;39954;48.844;9.726;2022-09-17T03:45:44;95706.13;;;6.97;100.00
54038;BME280;39954;48.844;9.726;2022-09-17T03:46:50;95710.31;;;6.99;100.00
54038;BME280;39954;48.844;9.726;2022-09-17T03:47:54;95708.81;;;6.95;100.00
54038;BME280;39954;48.844;9.726;2022-09-17T03:48:57;95711.16;;;7.00;100.00
54038;BME280;39954;48.844;9.726;2022-09-17T03:50:03;95710.53;;;6.94;100.00
54038;BME280;39954;48.844;9.726;2022-09-17T03:51:05;95706.13;;;6.97;100.00
54038;BME280;39954;48.844;9.726;2022-09-17T03:52:13;95708.66;;;6.98;100.00
54038;BME280;39954;48.844;9.726;2022-09-17T03:53:15;95699.97;;;6.99;100.00
54038;BME280;39954;48.844;9.726;2022-09-17T03:54:19;95711.25;;;6.98;100.00
54038;BME280;39954;48.844;9.726;2022-09-17T03:55:21;95707.81;;;6.98;100.00
54038;BME280;39954;48.844;9.726;2022-09-17T03:56:26;95708.66;;;6.98;100.00
54038;BME280;39954;48.844;9.726;2022-09-17T03:57:28;95707.66;;;7.01;100.00
54038;BME280;39954;48.844;9.726;2022-09-17T03:58:34;95716.16;;;7.03;100.00
54038;BME280;39954;48.844;9.726;2022-09-17T03:59:36;95710.41;;;6.98;100.00
54038;BME280;39954;48.844;9.726;2022-09-17T04:00:41;95713.66;;;7.01;100.00
54038;BME280;39954;48.844;9.726;2022-09-17T04:01:43;95714.66;;;6.99;100.00
54038;BME280;39954;48.844;9.726;2022-09-17T04:02:48;95711.91;;;7.02;100.00
54038;BME280;39954;48.844;9.726;2022-09-17T04:03:50;95710.81;;;6.88;100.00
54038;BME280;39954;48.844;9.726;2022-09-17T04:04:55;95717.59;;;6.91;100.00
54038;BME280;39954;48.844;9.726;2022-09-17T04:05:57;95715.94;;;6.90;100.00
54038;BME280;39954;48.844;9.726;2022-09-17T04:07:02;95719.19;;;6.93;100.00
54038;BME280;39954;48.844;9.726;2022-09-17T04:08:06;95714.13;;;6.92;100.00
54038;BME280;39954;48.844;9.726;2022-09-17T04:09:11;95711.81;;;6.86;100.00
54038;BME280;39954;48.844;9.726;2022-09-17T04:10:13;95715.25;;;6.86;100.00
54038;BME280;39954;48.844;9.726;2022-09-17T04:11:19;95711.91;;;6.84;100.00
54038;BME280;39954;48.844;9.726;2022-09-17T04:12:21;95710.97;;;6.85;100.00
54038;BME280;39954;48.844;9.726;2022-09-17T04:13:26;95714.50;;;6.84;100.00
54038;BME280;39954;48.844;9.726;2022-09-17T04:14:29;95710.09;;;6.86;100.00
54038;BME280;39954;48.844;9.726;2022-09-17T04:15:33;95713.66;;;6.84;100.00
54038;BME280;39954;48.844;9.726;2022-09-17T04:16:35;95711.75;;;6.87;100.00
54038;BME280;39954;48.844;9.726;2022-09-17T04:17:40;95704.84;;;6.88;100.00
54038;BME280;39954;48.844;9.726;2022-09-17T04:18:42;95707.50;;;6.86;100.00
54038;BME280;39954;48.844;9.726;2022-09-17T04:19:47;95703.03;;;6.90;100.00
54038;BME280;39954;48.844;9.726;2022-09-17T04:20:49;95702.47;;;6.83;100.00
54038;BME280;39954;48.844;9.726;2022-09-17T04:21:54;95705.13;;;6.82;100.00
54038;BME280;39954;48.844;9.726;2022-09-17T04:22:56;95710.34;;;6.80;100.00
54038;BME280;39954;48.844;9.726;2022-09-17T04:24:04;95712.19;;;6.78;100.00
54038;BME280;39954;48.844;9.726;2022-09-17T04:25:07;95706.88;;;6.81;100.00
54038;BME280;39954;48.844;9.726;2022-09-17T04:26:12;95713.72;;;6.82;100.00
54038;BME280;39954;48.844;9.726;2022-09-17T04:27:14;95704.16;;;6.84;100.00
54038;BME280;39954;48.844;9.726;2022-09-17T04:28:19;95706.88;;;6.81;100.00
54038;BME280;39954;48.844;9.726;2022-09-17T04:29:21;95706.75;;;6.84;100.00
54038;BME280;39954;48.844;9.726;2022-09-17T04:30:26;95700.94;;;6.79;100.00
54038;BME280;39954;48.844;9.726;2022-09-17T04:31:28;95701.56;;;6.84;100.00
54038;BME280;39954;48.844;9.726;2022-09-17T04:32:33;95709.84;;;6.91;100.00
54038;BME280;39954;48.844;9.726;2022-09-17T04:33:35;95709.22;;;6.86;100.00
54038;BME280;39954;48.844;9.726;2022-09-17T04:34:40;95704.16;;;6.84;100.00
54038;BME280;39954;48.844;9.726;2022-09-17T04:35:42;95716.50;;;6.78;100.00
54038;BME280;39954;48.844;9.726;2022-09-17T04:36:47;95710.59;;;6.76;100.00
54038;BME280;39954;48.844;9.726;2022-09-17T04:37:52;95708.84;;;6.76;100.00
54038;BME280;39954;48.844;9.726;2022-09-17T04:38:57;95715.38;;;6.83;100.00
54038;BME280;39954;48.844;9.726;2022-09-17T04:40:05;95723.00;;;6.86;100.00
54038;BME280;39954;48.844;9.726;2022-09-17T04:41:10;95724.81;;;6.84;100.00
54038;BME280;39954;48.844;9.726;2022-09-17T04:42:15;95726.63;;;6.82;100.00
54038;BME280;39954;48.844;9.726;2022-09-17T04:43:17;95729.34;;;6.79;100.00
54038;BME280;39954;48.844;9.726;2022-09-17T04:44:22;95729.41;;;6.78;100.00
54038;BME280;39954;48.844;9.726;2022-09-17T04:45:24;95727.56;;;6.81;100.00
54038;BME280;39954;48.844;9.726;2022-09-17T04:46:30;95731.25;;;6.76;100.00
54038;BME280;39954;48.844;9.726;2022-09-17T04:47:32;95731.03;;;6.80;100.00
54038;BME280;39954;48.844;9.726;2022-09-17T04:48:37;95733.47;;;6.83;100.00
54038;BME280;39954;48.844;9.726;2022-09-17T04:49:39;95730.28;;;6.78;100.00
54038;BME280;39954;48.844;9.726;2022-09-17T04:50:43;95726.84;;;6.78;100.00
54038;BME280;39954;48.844;9.726;2022-09-17T04:51:45;95712.78;;;6.83;100.00
54038;BME280;39954;48.844;9.726;2022-09-17T04:52:50;95729.50;;;6.76;100.00
54038;BME280;39954;48.844;9.726;2022-09-17T04:53:52;95734.81;;;6.73;100.00
54038;BME280;39954;48.844;9.726;2022-09-17T04:54:57;95736.19;;;6.80;100.00
54038;BME280;39954;48.844;9.726;2022-09-17T04:56:02;95743.03;;;6.81;100.00
54038;BME280;39954;48.844;9.726;2022-09-17T04:57:06;95733.91;;;6.74;100.00
54038;BME280;39954;48.844;9.726;2022-09-17T04:58:09;95738.22;;;6.73;100.00
54038;BME280;39954;48.844;9.726;2022-09-17T04:59:14;95732.16;;;6.75;100.00
54038;BME280;39954;48.844;9.726;2022-09-17T05:00:17;95751.91;;;6.76;100.00
54038;BME280;39954;48.844;9.726;2022-09-17T05:01:22;95734.53;;;6.79;100.00
54038;BME280;39954;48.844;9.726;2022-09-17T05:02:25;95749.25;;;6.77;100.00
54038;BME280;39954;48.844;9.726;2022-09-17T05:03:32;95743.47;;;6.72;100.00
54038;BME280;39954;48.844;9.726;2022-09-17T05:04:34;95740.88;;;6.72;100.00
54038;BME280;39954;48.844;9.726;2022-09-17T05:05:39;95747.09;;;6.68;100.00
54038;BME280;39954;48.844;9.726;2022-09-17T05:06:42;95748.72;;;6.70;100.00
54038;BME280;39954;48.844;9.726;2022-09-17T05:07:46;95743.59;;;6.69;100.00
54038;BME280;39954;48.844;9.726;2022-09-17T05:08:49;95748.72;;;6.70;100.00
54038;BME280;39954;48.844;9.726;2022-09-17T05:09:53;95746.13;;;6.70;100.00
54038;BME280;39954;48.844;9.726;2022-09-17T05:10:56;95741.50;;;6.77;100.00
54038;BME280;39954;48.844;9.726;2022-09-17T05:12:03;95743.53;;;6.70;100.00
54038;BME280;39954;48.844;9.726;2022-09-17T05:13:06;95752.91;;;6.73;100.00
54038;BME280;39954;48.844;9.726;2022-09-17T05:14:10;95745.22;;;6.71;100.00
54038;BME280;39954;48.844;9.726;2022-09-17T05:15:14;95748.34;;;6.78;100.00
54038;BME280;39954;48.844;9.726;2022-09-17T05:16:18;95751.97;;;6.74;100.00
54038;BME280;39954;48.844;9.726;2022-09-17T05:17:21;95756.50;;;6.69;100.00
54038;BME280;39954;48.844;9.726;2022-09-17T05:18:26;95748.91;;;6.66;100.00
54038;BME280;39954;48.844;9.726;2022-09-17T05:19:28;95759.25;;;6.66;100.00
54038;BME280;39954;48.844;9.726;2022-09-17T05:20:32;95755.91;;;6.64;100.00
54038;BME280;39954;48.844;9.726;2022-09-17T05:21:37;95744.88;;;6.60;100.00
54038;BME280;39954;48.844;9.726;2022-09-17T05:22:41;95756.13;;;6.59;100.00
54038;BME280;39954;48.844;9.726;2022-09-17T05:23:46;95752.41;;;6.65;100.00
54038;BME280;39954;48.844;9.726;2022-09-17T05:24:48;95753.53;;;6.59;100.00
54038;BME280;39954;48.844;9.726;2022-09-17T05:25:59;95751.78;;;6.60;100.00
54038;BME280;39954;48.844;9.726;2022-09-17T05:27:07;95756.59;;;6.67;100.00
54038;BME280;39954;48.844;9.726;2022-09-17T05:28:10;95758.94;;;6.72;100.00
54038;BME280;39954;48.844;9.726;2022-09-17T05:29:18;95762.47;;;6.71;100.00
54038;BME280;39954;48.844;9.726;2022-09-17T05:30:20;95758.25;;;6.68;100.00
54038;BME280;39954;48.844;9.726;2022-09-17T05:31:25;95755.16;;;6.62;100.00
54038;BME280;39954;48.844;9.726;2022-09-17T05:32:27;95755.78;;;6.67;100.00
54038;BME280;39954;48.844;9.726;2022-09-17T05:33:33;95759.88;;;6.71;100.00
54038;BME280;39954;48.844;9.726;2022-09-17T05:34:35;95777.03;;;6.72;100.00
54038;BME280;39954;48.844;9.726;2022-09-17T05:35:41;95760.06;;;6.66;100.00
54038;BME280;39954;48.844;9.726;2022-09-17T05:36:45;95755.19;;;6.60;100.00
54038;BME280;39954;48.844;9.726;2022-09-17T05:37:49;95767.81;;;6.66;100.00
54038;BME280;39954;48.844;9.726;2022-09-17T05:38:52;95773.63;;;6.71;100.00
54038;BME280;39954;48.844;9.726;2022-09-17T05:39:56;95774.75;;;6.66;100.00
54038;BME280;39954;48.844;9.726;2022-09-17T05:41:02;95771.28;;;6.67;100.00
54038;BME280;39954;48.844;9.726;2022-09-17T05:42:10;95769.28;;;6.72;100.00
54038;BME280;39954;48.844;9.726;2022-09-17T05:43:12;95766.50;;;6.77;100.00
54038;BME280;39954;48.844;9.726;2022-09-17T05:44:16;95776.28;;;6.70;100.00
54038;BME280;39954;48.844;9.726;2022-09-17T05:45:19;95766.69;;;6.72;100.00
54038;BME280;39954;48.844;9.726;2022-09-17T05:46:24;95763.00;;;6.78;100.00
54038;BME280;39954;48.844;9.726;2022-09-17T05:47:26;95763.91;;;6.77;100.00
54038;BME280;39954;48.844;9.726;2022-09-17T05:48:31;95774.19;;;6.78;100.00
54038;BME280;39954;48.844;9.726;2022-09-17T05:49:33;95764.88;;;6.74;100.00
54038;BME280;39954;48.844;9.726;2022-09-17T05:50:38;95775.50;;;6.68;100.00
54038;BME280;39954;48.844;9.726;2022-09-17T05:51:40;95781.75;;;6.64;100.00
54038;BME280;39954;48.844;9.726;2022-09-17T05:52:45;95775.56;;;6.66;100.00
54038;BME280;39954;48.844;9.726;2022-09-17T05:53:47;95776.56;;;6.64;100.00
54038;BME280;39954;48.844;9.726;2022-09-17T05:54:52;95773.06;;;6.65;100.00
54038;BME280;39954;48.844;9.726;2022-09-17T05:55:55;95769.56;;;6.66;100.00
54038;BME280;39954;48.844;9.726;2022-09-17T05:57:00;95776.28;;;6.70;100.00
54038;BME280;39954;48.844;9.726;2022-09-17T05:58:10;95771.41;;;6.64;100.00
54038;BME280;39954;48.844;9.726;2022-09-17T05:59:17;95776.34;;;6.68;100.00
54038;BME280;39954;48.844;9.726;2022-09-17T06:00:19;95770.00;;;6.76;100.00
54038;BME280;39954;48.844;9.726;2022-09-17T06:01:24;95766.44;;;6.78;100.00
54038;BME280;39954;48.844;9.726;2022-09-17T06:02:29;95765.38;;;6.82;100.00
54038;BME280;39954;48.844;9.726;2022-09-17T06:03:34;95773.41;;;6.76;100.00
54038;BME280;39954;48.844;9.726;2022-09-17T06:04:36;95770.00;;;6.76;100.00
54038;BME280;39954;48.844;9.726;2022-09-17T06:05:42;95771.59;;;6.78;100.00
54038;BME280;39954;48.844;9.726;2022-09-17T06:06:45;95787.44;;;6.70;100.00
54038;BME280;39954;48.844;9.726;2022-09-17T06:07:50;95771.88;;;6.72;100.00
54038;BME280;39954;48.844;9.726;2022-09-17T06:08:52;95785.69;;;6.71;100.00
54038;BME280;39954;48.844;9.726;2022-09-17T06:09:56;95784.78;;;6.72;100.00
54038;BME280;39954;48.844;9.726;2022-09-17T06:11:02;95783.06;;;6.72;100.00
54038;BME280;39954;48.844;9.726;2022-09-17T06:12:07;95777.81;;;6.74;100.00
54038;BME280;39954;48.844;9.726;2022-09-17T06:13:12;95782.97;;;6.74;100.00
54038;BME280;39954;48.844;9.726;2022-09-17T06:14:16;95786.25;;;6.78;100.00
54038;BME280;39954;48.844;9.726;2022-09-17T06:15:18;95791.34;;;6.79;100.00
54038;BME280;39954;48.844;9.726;2022-09-17T06:16:23;95787.09;;;6.78;100.00
54038;BME280;39954;48.844;9.726;2022-09-17T06:17:25;95796.81;;;6.73;100.00
54038;BME280;39954;48.844;9.726;2022-09-17T06:18:30;95799.38;;;6.73;100.00
54038;BME280;39954;48.844;9.726;2022-09-17T06:19:33;95788.91;;;6.76;100.00
54038;BME280;39954;48.844;9.726;2022-09-17T06:20:37;95785.25;;;6.80;100.00
54038;BME280;39954;48.844;9.726;2022-09-17T06:21:39;95779.88;;;6.85;100.00
54038;BME280;39954;48.844;9.726;2022-09-17T06:22:44;95779.06;;;6.84;100.00
54038;BME280;39954;48.844;9.726;2022-09-17T06:23:46;95778.91;;;6.87;100.00
54038;BME280;39954;48.844;9.726;2022-09-17T06:24:51;95792.75;;;6.86;100.00
54038;BME280;39954;48.844;9.726;2022-09-17T06:25:55;95778.91;;;6.87;100.00
54038;BME280;39954;48.844;9.726;2022-09-17T06:27:00;95794.41;;;6.87;100.00